tititudorancea.com
Station Historical Data
Daily Summary for August 17, 2018 Units:  Metric    English   Both
« Previous Day
Next Day »
Daily Weekly Monthly Yearly Custom
  High: Low: Average:
Temperature: -17.8 °C 4.9 °C 8.7 °C
Dew Point: -17.8 °C 3.6 °C 5.4 °C
Humidity: Humidity % 67 % 80 %
Wind Speed: 0 km/h 3.7 km/h 16.7 km/h
Wind Gust: 0 km/h - -
Wind:- - WNW
Pressure: 0 hPa 1006.7 hPa -
Precipitation: 0.79 mm    
Historical Graphs
 
 
Ararat weather Find more about Weather in Ararat, AU


 



 


Tabular Data for August 17, 2018
Time Temperature Dew Point Pressure Wind Wind Speed Wind Gust Humidity Rainfall Rate (Hourly)
-17.8 °C -17.8 °C 0 hPa Calm     Humidity % 0 mm
00:04 5.6 °C 4.5 °C 1013.4 hPa West 9.7 km/h 6.4 km/h 93 % 0 mm
00:09 5.8 °C 4.7 °C 1013.4 hPa North 11.1 km/h 8.2 km/h 93 % 0 mm
00:14 6 °C 4.8 °C 1013.1 hPa North 11.1 km/h 8.4 km/h 92 % 0 mm
00:19 6.2 °C 4.9 °C 1013.1 hPa North 9.7 km/h 9 km/h 92 % 0 mm
00:24 6.3 °C 4.9 °C 1013.1 hPa West 13 km/h 9.5 km/h 91 % 0 mm
00:29 6.4 °C 5 °C 1013.1 hPa WNW 11.1 km/h 7.6 km/h 91 % 0 mm
00:34 6.4 °C 4.9 °C 1013.1 hPa WNW 9.7 km/h 8.2 km/h 90 % 0 mm
00:39 6.4 °C 4.9 °C 1013.1 hPa WNW 9.3 km/h 7.6 km/h 90 % 0 mm
00:44 6.3 °C 4.8 °C 1013.1 hPa North 11.1 km/h 8.5 km/h 90 % 0 mm
00:49 6.4 °C 4.9 °C 1013.1 hPa North 9.3 km/h 5.8 km/h 90 % 0 mm
00:54 6.3 °C 4.7 °C 1013.1 hPa North 9.3 km/h 6.8 km/h 89 % 0 mm
00:59 6.3 °C 4.7 °C 1013.1 hPa WNW 11.1 km/h 8.2 km/h 89 % 0 mm
01:04 6.4 °C 4.7 °C 1013.1 hPa WNW 7.4 km/h 6 km/h 89 % 0 mm
01:09 6.3 °C 4.7 °C 1013.1 hPa North 7.4 km/h 6.1 km/h 89 % 0 mm
01:14 6.3 °C 4.6 °C 1013.4 hPa WNW 7.4 km/h 3.9 km/h 89 % 0 mm
01:19 6.2 °C 4.5 °C 1013.1 hPa WNW 11.1 km/h 6 km/h 89 % 0 mm
01:24 6.2 °C 4.5 °C 1013.4 hPa WNW 7.4 km/h 4.7 km/h 89 % 0 mm
01:29 6.2 °C 4.5 °C 1013.4 hPa WNW 9.3 km/h 6.1 km/h 89 % 0 mm
01:34 6.2 °C 4.5 °C 1013.4 hPa WNW 9.3 km/h 4.2 km/h 89 % 0 mm
01:39 6.1 °C 4.4 °C 1013.1 hPa WNW 5.6 km/h 3.7 km/h 89 % 0 mm
01:44 6.1 °C 4.4 °C 1013.4 hPa North 3.7 km/h 2.1 km/h 89 % 0 mm
01:49 5.9 °C 4.3 °C 1013.4 hPa WNW 5.6 km/h 2.6 km/h 89 % 0 mm
01:54 5.8 °C 4.2 °C 1013.4 hPa WNW 4.8 km/h 2.6 km/h 89 % 0 mm
01:59 5.8 °C 4.3 °C 1013.4 hPa North 5.6 km/h 3.2 km/h 90 % 0 mm
02:04 5.7 °C 4.2 °C 1013.4 hPa North 5.6 km/h 2.6 km/h 90 % 0 mm
02:09 5.7 °C 4.2 °C 1013.1 hPa WNW 6.4 km/h 5.5 km/h 90 % 0 mm
02:14 5.6 °C 4.1 °C 1013.4 hPa WNW 5.6 km/h 4.7 km/h 90 % 0 mm
02:19 5.5 °C 4 °C 1013.1 hPa West 4.8 km/h 2.6 km/h 90 % 0 mm
02:24 5.4 °C 3.9 °C 1013.1 hPa North 5.6 km/h 3.7 km/h 90 % 0 mm
02:29 5.3 °C 3.8 °C 1013.1 hPa WNW 5.6 km/h 3.1 km/h 90 % 0 mm
02:34 5.2 °C 3.7 °C 1013.1 hPa West 5.6 km/h 3.5 km/h 90 % 0 mm
02:39 5.1 °C 3.6 °C 1013.1 hPa WNW 7.4 km/h 5.5 km/h 90 % 0 mm
02:44 5 °C 3.7 °C 1013.1 hPa North 8 km/h 6.1 km/h 91 % 0 mm
02:49 5 °C 3.7 °C 1012.8 hPa WNW 7.4 km/h 6.3 km/h 91 % 0 mm
02:54 5 °C 3.7 °C 1012.8 hPa WNW 7.4 km/h 6.3 km/h 91 % 0 mm
02:59 5 °C 3.8 °C 1012.8 hPa WNW 7.4 km/h 6.1 km/h 92 % 0 mm
03:04 5.1 °C 3.9 °C 1012.8 hPa WNW 8 km/h 7.9 km/h 92 % 0.2 mm
03:09 5.2 °C 4.1 °C 1012.8 hPa North 9.3 km/h 7.2 km/h 92 % 0.2 mm
03:14 5.3 °C 4.2 °C 1012.8 hPa WNW 9.3 km/h 7.6 km/h 93 % 0.2 mm
03:19 5.4 °C 4.2 °C 1012.8 hPa North 7.4 km/h 6 km/h 92 % 0.2 mm
03:24 5.5 °C 4.3 °C 1012.8 hPa North 11.1 km/h 7.7 km/h 92 % 0.2 mm
03:29 5.5 °C 4.3 °C 1012.8 hPa North 11.1 km/h 6.6 km/h 92 % 0.2 mm
03:34 5.5 °C 4.3 °C 1012.4 hPa North 5.6 km/h 4 km/h 92 % 0.2 mm
03:39 5.5 °C 4.3 °C 1012.8 hPa North 5.6 km/h 3.7 km/h 92 % 0.2 mm
03:44 5.4 °C 4.2 °C 1012.4 hPa North 8 km/h 6 km/h 92 % 0.2 mm
03:49 5.4 °C 4.2 °C 1012.8 hPa WNW 9.3 km/h 5.8 km/h 92 % 0.2 mm
03:54 5.4 °C 4.3 °C 1012.8 hPa WNW 9.3 km/h 6.1 km/h 93 % 0.2 mm
03:59 5.4 °C 4.3 °C 1012.8 hPa North 9.7 km/h 4 km/h 93 % 0.2 mm
04:04 5.3 °C 4.3 °C 1012.4 hPa North 5.6 km/h 5 km/h 93 % 0 mm
04:09 5.3 °C 4.2 °C 1012.4 hPa WNW 7.4 km/h 6 km/h 93 % 0 mm
04:14 5.2 °C 4.2 °C 1012.4 hPa WNW 9.3 km/h 4.7 km/h 93 % 0 mm
04:19 5.2 °C 4.2 °C 1012.4 hPa North 11.1 km/h 6 km/h 93 % 0 mm
04:24 5.2 °C 4.2 °C 1012.8 hPa North 5.6 km/h 4.3 km/h 93 % 0 mm
04:29 5.3 °C 4.3 °C 1012.8 hPa North 9.3 km/h 5.1 km/h 93 % 0 mm
04:34 5.5 °C 4.4 °C 1012.8 hPa WNW 7.4 km/h 4 km/h 93 % 0 mm
04:39 5.6 °C 4.7 °C 1012.8 hPa WNW 5.6 km/h 4.5 km/h 94 % 0 mm
04:44 5.5 °C 4.4 °C 1012.8 hPa WNW 9.7 km/h 6.6 km/h 93 % 0 mm
04:49 5.5 °C 4.6 °C 1012.8 hPa WNW 9.3 km/h 8.2 km/h 94 % 0 mm
04:54 5.5 °C 4.6 °C 1012.8 hPa WNW 7.4 km/h 4 km/h 94 % 0 mm
04:59 5.5 °C 4.4 °C 1012.8 hPa North 9.3 km/h 5.1 km/h 93 % 0 mm
05:04 5.4 °C 4.4 °C 1012.8 hPa North 7.4 km/h 3.7 km/h 93 % 0 mm
05:09 5.5 °C 4.6 °C 1012.8 hPa WNW 9.3 km/h 6.9 km/h 94 % 0 mm
05:14 5.4 °C 4.6 °C 1012.8 hPa WNW 11.3 km/h 6.8 km/h 94 % 0 mm
05:19 5.5 °C 4.6 °C 1013.1 hPa North 11.3 km/h 6.8 km/h 94 % 0 mm
05:24 5.5 °C 4.6 °C 1012.8 hPa North 11.1 km/h 10.8 km/h 94 % 0 mm
05:29 5.6 °C 4.7 °C 1012.8 hPa WNW 18.5 km/h 8.4 km/h 94 % 0 mm
05:34 5.6 °C 4.7 °C 1012.8 hPa NW 9.7 km/h 7.9 km/h 94 % 0 mm
05:39 5.5 °C 4.6 °C 1012.8 hPa North 14.8 km/h 8.9 km/h 94 % 0 mm
05:44 5.6 °C 4.7 °C 1012.8 hPa North 16.7 km/h 9.5 km/h 94 % 0 mm
05:49 5.6 °C 4.7 °C 1012.8 hPa NW 16.7 km/h 10.5 km/h 94 % 0 mm
05:54 5.6 °C 4.7 °C 1012.8 hPa NW 13 km/h 8.9 km/h 94 % 0 mm
05:59 5.6 °C 4.7 °C 1012.8 hPa North 9.3 km/h 6.6 km/h 94 % 0 mm
06:04 5.6 °C 4.7 °C 1012.8 hPa NW 5.6 km/h 6.3 km/h 94 % 0 mm
06:09 5.5 °C 4.6 °C 1012.8 hPa North 11.1 km/h 6.9 km/h 94 % 0 mm
06:14 5.4 °C 4.5 °C 1012.8 hPa North 7.4 km/h 6 km/h 94 % 0 mm
06:19 5.3 °C 4.4 °C 1012.8 hPa NW 8 km/h 4.7 km/h 94 % 0 mm
06:24 5.2 °C 4.3 °C 1012.8 hPa NW 7.4 km/h 5.1 km/h 94 % 0 mm
06:29 5.1 °C 4.2 °C 1012.8 hPa North 9.7 km/h 8.4 km/h 94 % 0 mm
06:34 5.1 °C 4.2 °C 1012.8 hPa NW 14.8 km/h 6.3 km/h 94 % 0 mm
06:39 5.1 °C 4.2 °C 1013.1 hPa NW 13 km/h 7.1 km/h 94 % 0 mm
06:44 5.1 °C 4.2 °C 1012.8 hPa NW 13 km/h 8.9 km/h 94 % 0 mm
06:49 5.1 °C 4.2 °C 1013.1 hPa NW 9.3 km/h 7.2 km/h 94 % 0 mm
06:54 5.1 °C 4.2 °C 1013.1 hPa North 14.8 km/h 11.3 km/h 94 % 0 mm
06:59 5.1 °C 4.2 °C 1013.1 hPa North 13 km/h 9.2 km/h 94 % 0 mm
07:04 5 °C 4.1 °C 1013.1 hPa NW 11.1 km/h 7.4 km/h 94 % 0 mm
07:09 5 °C 4.1 °C 1013.4 hPa NW 13 km/h 8.5 km/h 94 % 0 mm
07:14 4.9 °C 4.1 °C 1013.4 hPa North 11.1 km/h 7.6 km/h 94 % 0 mm
07:19 4.9 °C 4 °C 1013.4 hPa NW 9.3 km/h 8.2 km/h 94 % 0 mm
07:24 4.9 °C 4.2 °C 1013.4 hPa NW 9.7 km/h 8.2 km/h 95 % 0 mm
07:29 4.9 °C 4.2 °C 1013.4 hPa NW 11.1 km/h 6.6 km/h 95 % 0 mm
07:34 4.9 °C 4.2 °C 1013.4 hPa North 9.3 km/h 6 km/h 95 % 0 mm
07:39 4.9 °C 4.2 °C 1013.4 hPa North 6.4 km/h 4.8 km/h 95 % 0 mm
07:44 5.1 °C 4.3 °C 1013.4 hPa NW 5.6 km/h 2.4 km/h 95 % 0 mm
07:49 5.1 °C 4.4 °C 1013.4 hPa NW 9.3 km/h 6.9 km/h 95 % 0 mm
07:54 5.2 °C 4.5 °C 1013.4 hPa North 9.3 km/h 5.8 km/h 95 % 0 mm
07:59 5.3 °C 4.6 °C 1013.4 hPa North 9.3 km/h 5.5 km/h 95 % 0 mm
08:04 5.4 °C 4.7 °C 1013.4 hPa NW 13 km/h 6.4 km/h 95 % 0 mm
08:09 5.4 °C 4.7 °C 1013.4 hPa NW 9.3 km/h 6.6 km/h 95 % 0 mm
08:14 5.5 °C 4.8 °C 1013.4 hPa NW 9.3 km/h 5.8 km/h 95 % 0 mm
08:19 5.6 °C 4.9 °C 1013.4 hPa NW 12.9 km/h 6.9 km/h 95 % 0 mm
08:24 5.7 °C 5 °C 1013.4 hPa NW 7.4 km/h 3.7 km/h 95 % 0 mm
08:29 5.8 °C 5.1 °C 1013.4 hPa NW 14.8 km/h 8.5 km/h 95 % 0 mm
08:34 5.9 °C 5.2 °C 1013.4 hPa NW 12.9 km/h 9.2 km/h 95 % 0 mm
08:39 6.1 °C 5.3 °C 1013.4 hPa NW 8 km/h 7.4 km/h 95 % 0 mm
08:44 6.3 °C 5.6 °C 1013.4 hPa NW 11.3 km/h 9.3 km/h 95 % 0 mm
08:49 6.4 °C 5.7 °C 1013.4 hPa North 14.5 km/h 8.2 km/h 95 % 0 mm
08:54 6.4 °C 5.5 °C 1013.4 hPa NW 8 km/h 4.2 km/h 94 % 0 mm
08:59 6.6 °C 5.8 °C 1013.4 hPa NW 9.3 km/h 6.1 km/h 95 % 0 mm
09:04 6.7 °C 5.8 °C 1013.4 hPa NW 16.7 km/h 8.4 km/h 94 % 0 mm
09:09 6.8 °C 5.7 °C 1013.4 hPa NNW 22.2 km/h 12.1 km/h 93 % 0 mm
09:14 6.9 °C 5.8 °C 1013.4 hPa North 13 km/h 7.7 km/h 93 % 0 mm
09:19 6.9 °C 5.7 °C 1013.4 hPa North 13 km/h 10 km/h 92 % 0 mm
09:24 7.1 °C 5.8 °C 1013.4 hPa North 18.5 km/h 14.2 km/h 92 % 0 mm
09:29 7.1 °C 5.7 °C 1013.4 hPa North 16.7 km/h 10.3 km/h 91 % 0 mm
09:34 7.2 °C 5.8 °C 1013.4 hPa North 20.4 km/h 15.1 km/h 91 % 0 mm
09:39 7.3 °C 5.8 °C 1013.1 hPa North 18.5 km/h 9 km/h 90 % 0 mm
09:44 7.6 °C 6 °C 1013.1 hPa North 12.9 km/h 13.2 km/h 90 % 0 mm
09:49 7.7 °C 6 °C 1013.4 hPa North 24.1 km/h 13.4 km/h 89 % 0 mm
09:54 7.8 °C 6.1 °C 1013.4 hPa North 20.4 km/h 9 km/h 89 % 0 mm
09:59 8 °C 6.1 °C 1013.1 hPa North 14.8 km/h 11.4 km/h 88 % 0 mm
10:04 8.2 °C 6.5 °C 1013.4 hPa North 18.5 km/h 13 km/h 89 % 0 mm
10:09 8.4 °C 6.5 °C 1013.1 hPa North 14.8 km/h 10.3 km/h 88 % 0 mm
10:14 8.6 °C 6.6 °C 1013.1 hPa NNE 16.7 km/h 12.9 km/h 87 % 0 mm
10:19 8.7 °C 6.4 °C 1013.1 hPa North 18.5 km/h 11.4 km/h 86 % 0 mm
10:24 8.8 °C 6.4 °C 1013.1 hPa NNE 20.9 km/h 17.4 km/h 85 % 0 mm
10:29 9 °C 6.6 °C 1013.1 hPa NNE 20.4 km/h 14.2 km/h 85 % 0 mm
10:34 9.2 °C 6.7 °C 1012.8 hPa North 14.8 km/h 12.2 km/h 84 % 0 mm
10:39 9.4 °C 6.7 °C 1012.8 hPa NNE 18.5 km/h 18.2 km/h 83 % 0 mm
10:44 9.4 °C 6.7 °C 1013.1 hPa North 18.5 km/h 15.3 km/h 83 % 0 mm
10:49 9.6 °C 6.6 °C 1012.8 hPa NNE 18.5 km/h 15.9 km/h 82 % 0 mm
10:54 9.9 °C 6.8 °C 1013.1 hPa North 22.2 km/h 9 km/h 81 % 0 mm
10:59 10 °C 6.7 °C 1012.8 hPa North 31.5 km/h 17.2 km/h 80 % 0 mm
11:04 10.1 °C 6.8 °C 1012.8 hPa North 18.5 km/h 11.3 km/h 80 % 0 mm
11:09 9.9 °C 6.7 °C 1012.8 hPa North 18.5 km/h 9.7 km/h 80 % 0 mm
11:14 9.8 °C 6.6 °C 1012.8 hPa NNE 25.7 km/h 14.3 km/h 80 % 0 mm
11:19 10.1 °C 6.4 °C 1012.8 hPa NW 18.5 km/h 11.7 km/h 78 % 0 mm
11:24 10.4 °C 6.2 °C 1012.8 hPa NNW 25.9 km/h 24.9 km/h 75 % 0 mm
11:29 10.3 °C 6.1 °C 1012.8 hPa NW 25.9 km/h 20 km/h 75 % 0 mm
11:34 10.1 °C 5.9 °C 1012.4 hPa NW 25.9 km/h 16.3 km/h 75 % 0 mm
11:39 10.3 °C 5.8 °C 1012.4 hPa NNW 31.5 km/h 16.3 km/h 74 % 0 mm
11:44 10.6 °C 6.1 °C 1012.4 hPa North 27.8 km/h 16.7 km/h 74 % 0 mm
11:49 10.6 °C 5.6 °C 1012.4 hPa NNW 33.3 km/h 15.6 km/h 71 % 0 mm
11:54 10.2 °C 5.4 °C 1012.4 hPa North 18.5 km/h 17.7 km/h 72 % 0 mm
11:59 10.1 °C 5.3 °C 1012.1 hPa North 24.1 km/h 17.7 km/h 72 % 0 mm
12:04 10.2 °C 5.4 °C 1012.1 hPa NNW 24.1 km/h 12.9 km/h 72 % 0 mm
12:09 10.4 °C 5.6 °C 1012.1 hPa NNW 22.2 km/h 15.3 km/h 72 % 0 mm
12:14 10.6 °C 5.5 °C 1012.1 hPa North 22.2 km/h 11.1 km/h 71 % 0 mm
12:19 10.8 °C 5.5 °C 1011.7 hPa NW 29.6 km/h 22.4 km/h 70 % 0 mm
12:24 10.9 °C 5.6 °C 1011.7 hPa NNW 33.3 km/h 18.2 km/h 70 % 0 mm
12:29 10.9 °C 5.8 °C 1011.7 hPa North 24.1 km/h 15.8 km/h 71 % 0 mm
12:34 10.8 °C 5.6 °C 1011.7 hPa NW 24.1 km/h 16.3 km/h 70 % 0 mm
12:39 10.8 °C 6 °C 1011.7 hPa NW 22.5 km/h 10.5 km/h 72 % 0 mm
12:44 10.9 °C 5.8 °C 1011.4 hPa NNW 20.9 km/h 13.8 km/h 71 % 0 mm
12:49 11 °C 5.5 °C 1011.4 hPa North 27.8 km/h 16.9 km/h 69 % 0 mm
12:54 11.1 °C 5.4 °C 1011.1 hPa North 30.6 km/h 17.1 km/h 68 % 0 mm
12:59 11.5 °C 6 °C 1011.1 hPa North 20.9 km/h 13.5 km/h 69 % 0 mm
13:04 11.8 °C 6.1 °C 1011.1 hPa NNW 22.2 km/h 18.5 km/h 68 % 0 mm
13:09 11.4 °C 5.9 °C 1011.1 hPa North 29 km/h 19 km/h 69 % 0 mm
13:14 11 °C 5.7 °C 1011.1 hPa North 24.1 km/h 14.3 km/h 70 % 0 mm
13:19 11.1 °C 6 °C 1010.7 hPa North 25.9 km/h 15.8 km/h 71 % 0 mm
13:24 11.2 °C 6.2 °C 1010.7 hPa North 25.9 km/h 17.1 km/h 71 % 0 mm
13:29 11.5 °C 6.4 °C 1010.4 hPa NW 20.4 km/h 12.7 km/h 71 % 0 mm
13:34 11.8 °C 6.3 °C 1010.4 hPa North 22.2 km/h 13.2 km/h 69 % 0 mm
13:39 11.7 °C 6.4 °C 1010.4 hPa NNW 20.4 km/h 11.9 km/h 70 % 0 mm
13:44 11.4 °C 6.1 °C 1010.4 hPa NW 20.4 km/h 15.3 km/h 70 % 0 mm
13:49 11.1 °C 6.3 °C 1010.4 hPa North 22.5 km/h 13 km/h 72 % 0 mm
13:54 10.9 °C 6.1 °C 1010.4 hPa NNW 18.5 km/h 8.7 km/h 72 % 0 mm
13:59 10.8 °C 6.1 °C 1010.4 hPa NNW 13 km/h 9.5 km/h 73 % 0 mm
14:04 10.8 °C 6.3 °C 1010.4 hPa NNW 16.1 km/h 14 km/h 74 % 0 mm
14:09 10.9 °C 6.7 °C 1010 hPa North 22.2 km/h 13 km/h 75 % 0 mm
14:14 11.1 °C 6.8 °C 1010 hPa North 16.7 km/h 6.8 km/h 75 % 0 mm
14:19 11.2 °C 6.9 °C 1010 hPa NNW 24.1 km/h 16.1 km/h 75 % 0 mm
14:24 11.4 °C 7.2 °C 1010 hPa North 33.3 km/h 13.5 km/h 75 % 0 mm
14:29 11.6 °C 6.9 °C 1009.7 hPa NNW 31.5 km/h 21.7 km/h 73 % 0 mm
14:34 11.8 °C 6.9 °C 1009.7 hPa NNW 24.1 km/h 9.5 km/h 72 % 0 mm
14:39 12.1 °C 7.2 °C 1009.7 hPa North 25.9 km/h 20 km/h 72 % 0 mm
14:44 12.5 °C 7.4 °C 1009.7 hPa NW 20.4 km/h 13.8 km/h 71 % 0 mm
14:49 12.8 °C 7 °C 1009.7 hPa NNW 29 km/h 23.8 km/h 68 % 0 mm
14:54 12.3 °C 6.9 °C 1009.4 hPa NNW 29.6 km/h 19.3 km/h 70 % 0 mm
14:59 12.6 °C 7.3 °C 1009.4 hPa NNW 24.1 km/h 11.9 km/h 70 % 0 mm
15:04 12.6 °C 6.8 °C 1009 hPa North 29.6 km/h 14.6 km/h 68 % 0 mm
15:09 12.6 °C 7.1 °C 1009 hPa NW 31.5 km/h 20.4 km/h 69 % 0 mm
15:14 12.3 °C 6.6 °C 1009 hPa North 29.6 km/h 15.1 km/h 68 % 0 mm
15:19 12.1 °C 6.6 °C 1009 hPa NNW 29.6 km/h 18.5 km/h 69 % 0 mm
15:24 11.9 °C 6.7 °C 1009 hPa NW 24.1 km/h 14 km/h 70 % 0 mm
15:29 12 °C 6.9 °C 1009 hPa NW 17.7 km/h 13.7 km/h 71 % 0 mm
15:34 12.3 °C 7 °C 1009 hPa NNW 20.4 km/h 12.4 km/h 70 % 0 mm
15:39 12.6 °C 7 °C 1009 hPa NW 30.6 km/h 20.1 km/h 69 % 0 mm
15:44 12.5 °C 6.8 °C 1008.7 hPa NNW 31.5 km/h 21.2 km/h 68 % 0 mm
15:49 12.4 °C 6.7 °C 1008.7 hPa NNW 24.1 km/h 12.1 km/h 68 % 0 mm
15:54 12.3 °C 6.6 °C 1008.7 hPa NNW 29.6 km/h 19 km/h 68 % 0 mm
15:59 12.6 °C 6.8 °C 1008.7 hPa NNW 24.1 km/h 16.1 km/h 68 % 0 mm
16:04 12.6 °C 6.6 °C 1008.7 hPa NNW 22.2 km/h 21.1 km/h 67 % 0 mm
16:09 12.4 °C 6.5 °C 1008.7 hPa NNW 25.9 km/h 14.3 km/h 67 % 0 mm
16:14 12.4 °C 6.7 °C 1008.7 hPa NNE 20.4 km/h 15.8 km/h 68 % 0 mm
16:19 12.1 °C 6.6 °C 1008.4 hPa North 22.2 km/h 10.9 km/h 69 % 0 mm
16:24 11.9 °C 6.6 °C 1008.7 hPa North 27.8 km/h 19.2 km/h 70 % 0 mm
16:29 11.7 °C 6.6 °C 1008.7 hPa North 25.9 km/h 19 km/h 71 % 0 mm
16:34 11.6 °C 6.5 °C 1008.4 hPa North 27.8 km/h 17.2 km/h 71 % 0 mm
16:39 11.6 °C 6.5 °C 1008.4 hPa NNE 20.4 km/h 16.7 km/h 71 % 0 mm
16:44 11.6 °C 6.7 °C 1008.4 hPa North 24.1 km/h 18.7 km/h 72 % 0 mm
16:49 11.6 °C 6.7 °C 1008.4 hPa NNW 18.5 km/h 18.7 km/h 72 % 0 mm
16:54 11.6 °C 6.7 °C 1008.4 hPa NNW 24.1 km/h 17.2 km/h 72 % 0 mm
16:59 11.6 °C 6.7 °C 1008.4 hPa North 14.8 km/h 12.6 km/h 72 % 0 mm
17:04 11.6 °C 6.7 °C 1008.4 hPa North 18.5 km/h 10.5 km/h 72 % 0 mm
17:09 11.6 °C 6.7 °C 1008.4 hPa NNW 16.7 km/h 13 km/h 72 % 0 mm
17:14 11.6 °C 6.5 °C 1008.4 hPa North 31.5 km/h 15 km/h 71 % 0 mm
17:19 11.5 °C 6.4 °C 1008.4 hPa North 16.7 km/h 11.4 km/h 71 % 0 mm
17:24 11.5 °C 6.4 °C 1008 hPa North 22.2 km/h 11.7 km/h 71 % 0 mm
17:29 11.5 °C 6.4 °C 1008 hPa North 14.8 km/h 13.4 km/h 71 % 0 mm
17:34 11.6 °C 6.5 °C 1008 hPa North 25.9 km/h 15.8 km/h 71 % 0 mm
17:39 11.6 °C 6.3 °C 1008 hPa North 25.9 km/h 14.3 km/h 70 % 0 mm
17:44 11.6 °C 6.3 °C 1008 hPa North 18.5 km/h 10.8 km/h 70 % 0 mm
17:49 11.6 °C 6.3 °C 1008 hPa NNE 18.5 km/h 8 km/h 70 % 0 mm
17:54 11.6 °C 6.3 °C 1008 hPa NNE 24.1 km/h 9 km/h 70 % 0 mm
17:59 11.6 °C 6.3 °C 1008 hPa North 16.7 km/h 9.8 km/h 70 % 0 mm
18:04 11.6 °C 6.3 °C 1008 hPa North 16.7 km/h 10 km/h 70 % 0 mm
18:09 11.6 °C 6.3 °C 1007.7 hPa North 18.5 km/h 10.9 km/h 70 % 0 mm
18:14 11.6 °C 6.1 °C 1008 hPa NNW 16.1 km/h 10 km/h 69 % 0 mm
18:19 11.6 °C 6.1 °C 1008 hPa NNW 18.5 km/h 11.9 km/h 69 % 0 mm
18:24 11.6 °C 6.1 °C 1008 hPa North 16.7 km/h 9 km/h 69 % 0 mm
18:29 11.5 °C 6 °C 1008 hPa NNW 22.5 km/h 10.6 km/h 69 % 0 mm
18:34 11.6 °C 6.1 °C 1008 hPa NNW 18.5 km/h 11.3 km/h 69 % 0 mm
18:39 11.6 °C 6.1 °C 1008 hPa NNW 14.8 km/h 9.3 km/h 69 % 0 mm
18:44 11.5 °C 6 °C 1008 hPa North 16.7 km/h 12.4 km/h 69 % 0 mm
18:49 11.6 °C 5.8 °C 1008 hPa North 18.5 km/h 11.4 km/h 68 % 0 mm
18:54 11.6 °C 5.9 °C 1007.7 hPa North 18.5 km/h 11.7 km/h 68 % 0 mm
18:59 11.6 °C 5.6 °C 1007.7 hPa North 18.5 km/h 11.3 km/h 67 % 0 mm
19:04 11.6 °C 5.6 °C 1008 hPa North 13 km/h 11.9 km/h 67 % 0 mm
19:09 11.6 °C 5.6 °C 1007.7 hPa North 20.4 km/h 10.8 km/h 67 % 0 mm
19:14 11.6 °C 5.7 °C 1008 hPa North 14.8 km/h 8 km/h 67 % 0 mm
19:19 11.6 °C 5.7 °C 1008 hPa North 20.4 km/h 14.6 km/h 67 % 0 mm
19:24 11.7 °C 5.7 °C 1008 hPa NNW 18.5 km/h 11.6 km/h 67 % 0 mm
19:29 11.7 °C 5.7 °C 1008 hPa North 18.5 km/h 7.6 km/h 67 % 0 mm
19:34 11.7 °C 5.7 °C 1008 hPa North 16.7 km/h 8.9 km/h 67 % 0 mm
19:39 11.7 °C 5.7 °C 1008 hPa North 16.7 km/h 10.3 km/h 67 % 0 mm
19:44 11.6 °C 5.7 °C 1008 hPa North 13 km/h 8.7 km/h 67 % 0 mm
19:49 11.6 °C 5.6 °C 1008 hPa NNW 20.4 km/h 7.7 km/h 67 % 0 mm
19:54 11.5 °C 5.8 °C 1008 hPa North 12.9 km/h 9.2 km/h 68 % 0 mm
19:59 11.4 °C 5.7 °C 1008 hPa North 13 km/h 9.2 km/h 68 % 0 mm
20:04 11.4 °C 5.7 °C 1008 hPa North 12.9 km/h 9.7 km/h 68 % 0 mm
20:09 11.3 °C 5.6 °C 1008 hPa NNW 18.5 km/h 10 km/h 68 % 0 mm
20:14 11.3 °C 5.6 °C 1008 hPa North 13 km/h 9 km/h 68 % 0 mm
20:19 11.2 °C 5.7 °C 1008 hPa North 22.2 km/h 11.9 km/h 69 % 0 mm
20:24 11.2 °C 5.7 °C 1008 hPa North 18.5 km/h 8.5 km/h 69 % 0 mm
20:29 11.1 °C 5.6 °C 1007.7 hPa North 19.3 km/h 12.6 km/h 69 % 0 mm
20:34 11.1 °C 5.6 °C 1007.7 hPa North 22.2 km/h 13.2 km/h 69 % 0 mm
20:39 11 °C 5.5 °C 1007.7 hPa North 25.9 km/h 12.9 km/h 69 % 0 mm
20:44 11 °C 5.5 °C 1007.7 hPa NNW 16.7 km/h 13.2 km/h 69 % 0 mm
20:49 10.9 °C 5.5 °C 1007.7 hPa NNW 13 km/h 10.1 km/h 69 % 0 mm
20:54 10.9 °C 5.4 °C 1007.7 hPa NNW 18.5 km/h 10.8 km/h 69 % 0 mm
20:59 10.8 °C 5.5 °C 1007.3 hPa North 13 km/h 11.6 km/h 70 % 0 mm
21:04 10.7 °C 5.4 °C 1007.3 hPa North 17.7 km/h 12.7 km/h 70 % 0 mm
21:09 10.7 °C 5.4 °C 1007.3 hPa North 16.7 km/h 14.8 km/h 70 % 0 mm
21:14 10.6 °C 5.4 °C 1007.3 hPa NNW 16.1 km/h 10.5 km/h 70 % 0 mm
21:19 10.7 °C 5.4 °C 1007.3 hPa North 20.4 km/h 6.9 km/h 70 % 0 mm
21:24 10.7 °C 5.4 °C 1007.3 hPa North 27.8 km/h 12.9 km/h 70 % 0 mm
21:29 10.7 °C 5.3 °C 1007.3 hPa NNW 16.7 km/h 13.4 km/h 69 % 0 mm
21:34 10.7 °C 5.3 °C 1007.3 hPa North 22.2 km/h 10.1 km/h 69 % 0 mm
21:39 10.7 °C 5.2 °C 1007.3 hPa North 18.5 km/h 13.5 km/h 69 % 0 mm
21:44 10.7 °C 5.3 °C 1007.3 hPa North 20.4 km/h 17.4 km/h 69 % 0 mm
21:49 10.7 °C 5.2 °C 1007 hPa North 29.6 km/h 14.3 km/h 69 % 0 mm
21:54 10.7 °C 5.2 °C 1007 hPa North 14.8 km/h 13.5 km/h 69 % 0 mm
21:59 10.6 °C 5.2 °C 1007 hPa North 18.5 km/h 16.4 km/h 69 % 0 mm
22:04 10.6 °C 5.4 °C 1007 hPa North 24.1 km/h 14.6 km/h 70 % 0 mm
22:09 10.6 °C 5.3 °C 1007 hPa North 18.5 km/h 13.5 km/h 70 % 0 mm
22:14 10.5 °C 5.3 °C 1007 hPa North 18.5 km/h 16.9 km/h 70 % 0 mm
22:19 10.5 °C 5.3 °C 1007 hPa North 18.5 km/h 10.1 km/h 70 % 0 mm
22:24 10.4 °C 5.4 °C 1006.7 hPa NNW 18.5 km/h 16.6 km/h 71 % 0 mm
22:29 10.4 °C 5.3 °C 1007 hPa NNW 25.9 km/h 15.3 km/h 71 % 0 mm
22:34 10.3 °C 5.7 °C 1007 hPa North 18.5 km/h 14.3 km/h 73 % 0 mm
22:39 10.2 °C 5.6 °C 1007 hPa North 19.3 km/h 10.5 km/h 73 % 0 mm
22:44 10.1 °C 5.7 °C 1007 hPa NNW 11.3 km/h 5.3 km/h 74 % 0 mm
22:49 10 °C 5.8 °C 1007 hPa NNW 16.7 km/h 11.6 km/h 75 % 0 mm
22:54 9.9 °C 5.8 °C 1007.3 hPa NNW 14.8 km/h 9.8 km/h 76 % 0 mm
22:59 9.8 °C 6.2 °C 1007.3 hPa North 27.4 km/h 18.3 km/h 78 % 0.2 mm
23:04 9.9 °C 6.8 °C 1007.7 hPa NW 44.4 km/h 26.4 km/h 81 % 0.41 mm
23:09 9.7 °C 6.6 °C 1007.7 hPa WNW 33.3 km/h 31.5 km/h 81 % 0.41 mm
23:14 9.4 °C 6.3 °C 1007.3 hPa NW 31.5 km/h 22.5 km/h 81 % 0.41 mm
23:19 9.2 °C 6.3 °C 1007.3 hPa WNW 29.6 km/h 20.8 km/h 82 % 0.61 mm
23:24 9 °C 6.3 °C 1007.3 hPa WNW 20.4 km/h 11.9 km/h 83 % 0.61 mm
23:29 8.8 °C 5.9 °C 1007.3 hPa North 24.1 km/h 17.5 km/h 82 % 0.61 mm
23:34 8.8 °C 5.9 °C 1007 hPa NW 13 km/h 12.2 km/h 82 % 0.61 mm
23:39 8.8 °C 5.7 °C 1007.3 hPa North 18.5 km/h 12.1 km/h 81 % 0.61 mm
23:44 8.7 °C 5.7 °C 1007 hPa NW 22.5 km/h 13.8 km/h 81 % 0.61 mm
23:49 8.8 °C 5.7 °C 1007.3 hPa NW 20.4 km/h 8.9 km/h 81 % 0.61 mm
23:54 8.8 °C 5.7 °C 1007.3 hPa North 22.5 km/h 16.6 km/h 81 % 0.61 mm
23:59 8.8 °C 5.7 °C 1007 hPa North 14.8 km/h 11.6 km/h 81 % 0.41 mm
Ararat Weather
Compliments of Weather Underground - 2.25 mb
Click here to send mail.


ABOUT

Live weather data from Ararat, Victoria, Australia, 3377
Data uploaded from Cumulus every 5 minutes to Weather Underground.
This site then downloads the raw data for formatting and display.
Metric and imperial data can be displayed. Graphs and historical data available.
Includes Sun and Moon times and rain image live from BOM.

Check out Ararat Weather on Facebook, Twitter and Google +

Help support ongoing costs by checking out the ads





Follow @AraratWeather